createdAt,value
2022-10-31T00:01:35.857Z,13.00
2022-10-31T00:04:04.463Z,12.90
2022-10-31T00:06:32.336Z,12.90
2022-10-31T00:09:02.320Z,12.90
2022-10-31T00:11:30.480Z,12.90
2022-10-31T00:13:59.771Z,12.90
2022-10-31T00:16:28.662Z,12.90
2022-10-31T00:19:02.481Z,12.80
2022-10-31T00:21:31.572Z,12.80
2022-10-31T00:24:00.443Z,12.80
2022-10-31T00:26:29.615Z,12.90
2022-10-31T00:29:01.065Z,12.90
2022-10-31T00:31:29.367Z,12.90
2022-10-31T00:33:58.818Z,12.90
2022-10-31T00:36:26.656Z,12.90
2022-10-31T00:38:54.335Z,12.90
2022-10-31T00:41:22.019Z,12.80
2022-10-31T00:43:49.697Z,12.90
2022-10-31T00:46:17.474Z,12.90
2022-10-31T00:48:45.304Z,12.80
2022-10-31T00:51:13.058Z,12.80
2022-10-31T00:53:40.725Z,12.80
2022-10-31T00:56:08.451Z,12.60
2022-10-31T00:58:36.271Z,12.40
2022-10-31T01:01:04.621Z,12.40
2022-10-31T01:03:34.002Z,12.30
2022-10-31T01:06:11.267Z,12.30
2022-10-31T01:08:39.578Z,12.20
2022-10-31T01:11:17.715Z,12.30
2022-10-31T01:13:46.707Z,12.40
2022-10-31T01:16:19.281Z,12.40
2022-10-31T01:18:47.834Z,12.50
2022-10-31T01:21:20.450Z,12.60
2022-10-31T01:23:48.523Z,12.80
2022-10-31T01:26:21.971Z,12.80
2022-10-31T01:28:55.359Z,12.90
2022-10-31T01:31:25.850Z,12.90
2022-10-31T01:33:53.706Z,13.00
2022-10-31T01:36:32.000Z,12.90
2022-10-31T01:39:04.147Z,12.80
2022-10-31T01:41:34.929Z,12.70
2022-10-31T01:44:24.496Z,12.60
2022-10-31T01:47:16.906Z,12.50
2022-10-31T01:49:51.825Z,12.40
2022-10-31T01:52:24.624Z,12.30
2022-10-31T01:55:02.286Z,12.30
2022-10-31T01:57:31.691Z,12.20
2022-10-31T02:00:03.882Z,12.00
2022-10-31T02:02:32.885Z,11.90
2022-10-31T02:05:06.934Z,11.80
2022-10-31T02:07:40.638Z,11.70
2022-10-31T02:10:08.734Z,11.70
2022-10-31T02:12:39.319Z,11.70
2022-10-31T02:15:07.670Z,11.60
2022-10-31T02:17:35.633Z,11.60
2022-10-31T02:20:06.483Z,11.60
2022-10-31T02:23:01.890Z,11.60
2022-10-31T02:26:07.221Z,11.60
2022-10-31T02:29:11.920Z,11.60
2022-10-31T02:31:51.963Z,11.60
2022-10-31T02:34:37.374Z,11.60
2022-10-31T02:37:17.924Z,11.60
2022-10-31T02:39:57.490Z,11.60
2022-10-31T02:42:32.072Z,11.60
2022-10-31T02:45:04.941Z,11.60
2022-10-31T02:47:38.082Z,11.60
2022-10-31T02:50:20.267Z,11.60
2022-10-31T02:52:52.674Z,11.60
2022-10-31T02:55:26.467Z,11.60
2022-10-31T02:57:58.143Z,11.60
2022-10-31T03:00:26.491Z,11.60
2022-10-31T03:03:01.597Z,11.50
2022-10-31T03:05:48.267Z,11.60
2022-10-31T03:08:24.913Z,11.60
2022-10-31T03:10:59.897Z,11.60
2022-10-31T03:13:30.578Z,11.60
2022-10-31T03:16:23.430Z,11.50
2022-10-31T03:19:13.633Z,11.50
2022-10-31T03:21:53.884Z,11.50
2022-10-31T03:24:23.496Z,11.50
2022-10-31T03:26:54.455Z,11.50
2022-10-31T03:29:25.363Z,11.60
2022-10-31T03:31:58.893Z,11.60
2022-10-31T03:34:27.667Z,11.50
2022-10-31T03:36:59.138Z,11.60
2022-10-31T03:39:28.101Z,11.60
2022-10-31T03:42:06.567Z,11.60
2022-10-31T03:44:35.833Z,11.50
2022-10-31T03:47:04.748Z,11.50
2022-10-31T03:49:34.103Z,11.40
2022-10-31T03:52:25.896Z,11.40
2022-10-31T03:55:05.101Z,11.30
2022-10-31T03:57:47.850Z,11.30
2022-10-31T04:00:17.757Z,11.30
2022-10-31T04:03:01.229Z,11.30
2022-10-31T04:05:31.800Z,11.30
2022-10-31T04:08:01.487Z,11.20
2022-10-31T04:10:33.085Z,11.20
2022-10-31T04:13:15.071Z,11.20
2022-10-31T04:15:44.500Z,11.20
2022-10-31T04:18:12.159Z,11.10
2022-10-31T04:20:42.782Z,11.10
2022-10-31T04:23:27.636Z,11.10
2022-10-31T04:25:55.380Z,11.10
2022-10-31T04:28:23.351Z,11.10
2022-10-31T04:30:51.224Z,11.10
2022-10-31T04:33:19.606Z,11.10
2022-10-31T04:35:47.794Z,11.10
2022-10-31T04:38:21.199Z,11.20
2022-10-31T04:40:48.937Z,11.20
2022-10-31T04:43:16.710Z,11.20
2022-10-31T04:45:44.428Z,11.10
2022-10-31T04:48:12.119Z,11.20
2022-10-31T04:50:39.775Z,11.30
2022-10-31T04:53:07.571Z,11.30
2022-10-31T04:55:36.783Z,11.30
2022-10-31T04:58:04.990Z,11.30
2022-10-31T05:00:33.159Z,11.30
2022-10-31T05:03:01.148Z,11.30
2022-10-31T05:05:31.709Z,11.30
2022-10-31T05:07:59.404Z,11.30
2022-10-31T05:10:29.869Z,11.30
2022-10-31T05:13:00.770Z,11.30
2022-10-31T05:15:29.130Z,11.30
2022-10-31T05:17:57.413Z,11.30
2022-10-31T05:20:28.263Z,11.30
2022-10-31T05:22:57.897Z,11.30
2022-10-31T05:25:27.743Z,11.40
2022-10-31T05:27:57.121Z,11.30
2022-10-31T05:30:30.731Z,11.30
2022-10-31T05:32:58.984Z,11.20
2022-10-31T05:35:32.613Z,11.10
2022-10-31T05:38:00.789Z,11.00
2022-10-31T05:40:29.571Z,11.00
2022-10-31T05:42:59.633Z,11.00
2022-10-31T05:45:28.089Z,10.90
2022-10-31T05:48:00.957Z,10.90
2022-10-31T05:50:31.220Z,10.90
2022-10-31T05:53:04.677Z,10.90
2022-10-31T05:55:33.017Z,10.80
2022-10-31T05:58:01.228Z,10.70
2022-10-31T06:00:29.692Z,10.70
2022-10-31T06:03:01.800Z,10.70
2022-10-31T06:05:30.511Z,10.70
2022-10-31T06:07:59.248Z,10.70
2022-10-31T06:10:27.871Z,10.80
2022-10-31T06:12:55.760Z,10.80
2022-10-31T06:15:24.416Z,10.80
2022-10-31T06:18:04.073Z,10.80
2022-10-31T06:20:32.863Z,10.80
2022-10-31T06:23:01.414Z,10.80
2022-10-31T06:25:29.561Z,10.80
2022-10-31T06:27:58.033Z,10.80
2022-10-31T06:30:26.373Z,10.80
2022-10-31T06:32:54.133Z,10.80
2022-10-31T06:35:21.936Z,10.90
2022-10-31T06:37:54.370Z,10.90
2022-10-31T06:40:22.684Z,11.00
2022-10-31T06:43:01.015Z,11.10
2022-10-31T06:45:29.199Z,11.20
2022-10-31T06:48:15.928Z,11.20
2022-10-31T06:50:44.688Z,11.30
2022-10-31T06:53:12.709Z,11.30
2022-10-31T06:55:40.964Z,11.30
2022-10-31T06:58:11.625Z,11.40
2022-10-31T07:00:39.461Z,11.50
2022-10-31T07:03:12.549Z,11.60
2022-10-31T07:05:40.851Z,11.60
2022-10-31T07:08:10.977Z,11.60
2022-10-31T07:10:40.888Z,11.70
2022-10-31T07:13:14.151Z,11.80
2022-10-31T07:15:43.479Z,11.80
2022-10-31T07:18:12.993Z,11.90
2022-10-31T07:20:40.796Z,12.00
2022-10-31T07:23:10.548Z,12.00
2022-10-31T07:25:39.540Z,12.10
2022-10-31T07:28:07.552Z,12.20
2022-10-31T07:30:35.353Z,12.30
2022-10-31T07:33:03.517Z,12.30
2022-10-31T07:35:31.838Z,12.30
2022-10-31T07:38:08.269Z,12.30
2022-10-31T07:40:35.909Z,12.40
2022-10-31T07:43:03.686Z,12.30
2022-10-31T07:45:31.455Z,12.40
2022-10-31T07:47:59.653Z,12.50
2022-10-31T07:50:35.027Z,12.60
2022-10-31T07:53:13.942Z,12.70
2022-10-31T07:55:41.962Z,12.70
2022-10-31T07:58:22.816Z,12.90
2022-10-31T08:00:50.820Z,13.10
2022-10-31T08:03:20.106Z,13.30
2022-10-31T08:05:48.197Z,13.40
2022-10-31T08:08:16.554Z,13.50
2022-10-31T08:10:44.376Z,13.50
2022-10-31T08:13:14.274Z,13.60
2022-10-31T08:15:43.023Z,13.60
2022-10-31T08:18:14.052Z,13.70
2022-10-31T08:20:45.102Z,13.90
2022-10-31T08:23:13.769Z,13.90
2022-10-31T08:25:43.246Z,14.00
2022-10-31T08:28:12.675Z,14.10
2022-10-31T08:30:41.722Z,14.20
2022-10-31T08:33:18.664Z,14.20
2022-10-31T08:35:46.522Z,14.30
2022-10-31T08:38:15.067Z,14.40
2022-10-31T08:40:42.942Z,14.50
2022-10-31T08:43:14.065Z,14.60
2022-10-31T08:45:42.671Z,14.60
2022-10-31T08:48:15.029Z,14.60
2022-10-31T08:50:43.413Z,14.70
2022-10-31T08:53:14.226Z,14.80
2022-10-31T08:55:43.176Z,14.80
2022-10-31T08:58:13.515Z,14.90
2022-10-31T09:00:41.426Z,14.90
2022-10-31T09:03:16.117Z,14.90
2022-10-31T09:05:44.036Z,14.90
2022-10-31T09:08:16.430Z,14.90
2022-10-31T09:10:45.830Z,14.90
2022-10-31T09:13:16.269Z,14.90
2022-10-31T09:15:45.968Z,15.10
2022-10-31T09:18:15.737Z,15.10
2022-10-31T09:20:45.051Z,15.10
2022-10-31T09:23:15.198Z,15.20
2022-10-31T09:25:47.705Z,15.10
2022-10-31T09:28:23.663Z,15.20
2022-10-31T09:30:53.356Z,15.20
2022-10-31T09:33:22.135Z,15.30
2022-10-31T09:35:50.262Z,15.30
2022-10-31T09:38:21.149Z,15.40
2022-10-31T09:41:07.594Z,15.50
2022-10-31T09:43:49.406Z,15.60
2022-10-31T09:46:38.743Z,15.70
2022-10-31T09:49:12.289Z,15.70
2022-10-31T09:51:51.928Z,16.00
2022-10-31T09:54:33.524Z,16.20
2022-10-31T09:57:01.661Z,16.30
2022-10-31T09:59:34.335Z,16.40
2022-10-31T10:02:11.429Z,16.60
2022-10-31T10:04:48.928Z,16.60
2022-10-31T10:07:47.683Z,16.60
2022-10-31T10:10:41.157Z,16.70
2022-10-31T10:13:31.742Z,16.90
2022-10-31T10:16:23.796Z,16.80
2022-10-31T10:19:17.430Z,16.70
2022-10-31T10:22:24.870Z,16.80
2022-10-31T10:25:04.506Z,17.20
2022-10-31T10:27:32.162Z,17.30
2022-10-31T10:30:13.980Z,17.40
2022-10-31T10:33:05.021Z,17.50
2022-10-31T10:35:35.340Z,17.70
2022-10-31T10:38:20.513Z,18.00
2022-10-31T10:40:48.877Z,18.00
2022-10-31T10:43:21.507Z,18.10
2022-10-31T10:46:27.914Z,18.20
2022-10-31T10:49:34.755Z,18.50
2022-10-31T10:52:49.462Z,18.90
2022-10-31T10:55:49.146Z,18.90
2022-10-31T10:58:17.171Z,18.90
2022-10-31T11:00:50.821Z,18.80
2022-10-31T11:03:19.745Z,18.80
2022-10-31T11:05:54.611Z,18.80
2022-10-31T11:08:34.140Z,18.80
2022-10-31T11:11:09.196Z,18.80
2022-10-31T11:13:37.934Z,18.90
2022-10-31T11:16:08.300Z,19.10
2022-10-31T11:18:40.468Z,19.00
2022-10-31T11:21:29.169Z,19.00
2022-10-31T11:24:12.160Z,19.10
2022-10-31T11:26:41.463Z,18.90
2022-10-31T11:38:55.543Z,18.80
2022-10-31T11:41:51.371Z,18.90
2022-10-31T11:44:51.940Z,18.90
2022-10-31T11:48:21.208Z,19.40
2022-10-31T11:54:58.231Z,19.90
2022-10-31T11:58:14.462Z,20.20
2022-10-31T12:01:43.984Z,20.50
2022-10-31T12:07:59.230Z,20.60
2022-10-31T12:11:10.759Z,20.70
2022-10-31T12:14:44.919Z,20.60
2022-10-31T12:18:27.162Z,20.70
2022-10-31T12:24:50.486Z,21.60
2022-10-31T12:38:50.856Z,24.20
2022-10-31T12:42:12.120Z,23.80
2022-10-31T12:45:37.261Z,23.40
2022-10-31T12:48:46.599Z,22.60
2022-10-31T12:51:59.841Z,21.50
2022-10-31T12:55:27.328Z,20.80
2022-10-31T12:58:14.099Z,20.30
2022-10-31T13:01:08.222Z,19.80
2022-10-31T13:04:35.063Z,19.60
2022-10-31T13:11:06.632Z,19.20
2022-10-31T13:15:00.984Z,19.00
2022-10-31T13:21:36.090Z,18.60
2022-10-31T13:24:36.570Z,18.50
2022-10-31T13:27:56.202Z,18.30
2022-10-31T13:33:54.766Z,18.20
2022-10-31T13:40:01.585Z,18.30
2022-10-31T13:43:24.942Z,18.30
2022-10-31T13:49:47.168Z,18.10
2022-10-31T13:52:51.382Z,18.10
2022-10-31T13:56:02.298Z,18.10
2022-10-31T13:59:08.275Z,18.10
2022-10-31T14:08:57.952Z,20.70
2022-10-31T14:12:04.061Z,24.00
2022-10-31T14:14:57.976Z,26.90
2022-10-31T14:17:48.500Z,28.20
2022-10-31T14:27:48.301Z,26.00
2022-10-31T14:30:49.684Z,24.00
2022-10-31T14:40:43.958Z,20.50
2022-10-31T14:44:17.352Z,19.90
2022-10-31T14:51:22.809Z,19.00
2022-10-31T14:54:12.087Z,18.70
2022-10-31T14:57:04.630Z,18.40
2022-10-31T15:00:36.108Z,18.20
2022-10-31T15:04:10.139Z,18.00
2022-10-31T15:10:33.380Z,17.60
2022-10-31T15:13:52.219Z,17.50
2022-10-31T15:19:44.095Z,17.30
2022-10-31T15:22:17.091Z,17.20
2022-10-31T15:24:52.685Z,17.20
2022-10-31T15:27:21.924Z,17.20
2022-10-31T15:29:51.066Z,17.30
2022-10-31T15:32:26.391Z,17.20
2022-10-31T15:34:55.634Z,17.20
2022-10-31T15:37:25.904Z,17.30
2022-10-31T15:39:54.265Z,17.30
2022-10-31T15:42:40.234Z,17.30
2022-10-31T15:45:11.929Z,17.30
2022-10-31T15:47:45.920Z,17.30
2022-10-31T15:50:24.620Z,17.10
2022-10-31T15:52:52.953Z,16.90
2022-10-31T15:55:28.897Z,16.70
2022-10-31T15:58:05.690Z,16.60
2022-10-31T16:00:35.881Z,16.50
2022-10-31T16:03:26.618Z,16.30
2022-10-31T16:05:59.685Z,16.30
2022-10-31T16:08:27.360Z,16.20
2022-10-31T16:11:07.565Z,16.10
2022-10-31T16:13:57.105Z,16.00
2022-10-31T16:16:41.219Z,15.90
2022-10-31T16:19:24.621Z,15.80
2022-10-31T16:22:14.345Z,15.70
2022-10-31T16:25:12.596Z,15.60
2022-10-31T16:27:41.736Z,15.60
2022-10-31T16:30:48.415Z,15.50
2022-10-31T16:33:41.391Z,15.40
2022-10-31T16:36:36.337Z,15.40
2022-10-31T16:39:07.431Z,15.30
2022-10-31T16:41:56.614Z,15.30
2022-10-31T16:44:28.127Z,15.30
2022-10-31T16:47:27.683Z,15.20
2022-10-31T16:50:08.686Z,15.20
2022-10-31T16:52:38.622Z,15.30
2022-10-31T16:55:24.179Z,15.40
2022-10-31T16:57:58.216Z,15.50
2022-10-31T17:00:32.723Z,15.70
2022-10-31T17:03:06.647Z,15.70
2022-10-31T17:05:37.819Z,15.60
2022-10-31T17:08:12.891Z,15.60
2022-10-31T17:10:43.687Z,15.50
2022-10-31T17:13:20.111Z,15.50
2022-10-31T17:15:51.861Z,15.50
2022-10-31T17:18:27.379Z,15.40
2022-10-31T17:21:01.382Z,15.40
2022-10-31T17:23:30.046Z,15.40
2022-10-31T17:25:57.917Z,15.20
2022-10-31T17:28:28.016Z,15.10
2022-10-31T17:30:58.491Z,15.00
2022-10-31T17:33:28.149Z,15.00
2022-10-31T17:35:59.020Z,14.80
2022-10-31T17:38:29.010Z,14.70
2022-10-31T17:40:56.856Z,14.60
2022-10-31T17:43:29.983Z,14.60
2022-10-31T17:46:00.224Z,14.60
2022-10-31T17:48:29.964Z,14.50
2022-10-31T17:51:01.512Z,14.40
2022-10-31T17:53:31.300Z,14.30
2022-10-31T17:56:05.507Z,14.30
2022-10-31T17:58:38.943Z,14.20
2022-10-31T18:01:16.162Z,14.20
2022-10-31T18:03:44.048Z,14.10
2022-10-31T18:06:14.369Z,14.10
2022-10-31T18:08:42.437Z,14.10
2022-10-31T18:11:20.927Z,14.00
2022-10-31T18:13:54.250Z,14.10
2022-10-31T18:22:49.442Z,14.00
2022-10-31T18:25:44.633Z,14.00
2022-10-31T18:29:29.351Z,14.00
2022-10-31T18:32:27.192Z,13.90
2022-10-31T18:35:35.333Z,13.80
2022-10-31T18:38:06.810Z,13.80
2022-10-31T18:40:42.010Z,13.80
2022-10-31T18:43:09.806Z,13.80
2022-10-31T18:45:47.177Z,13.80
2022-10-31T18:48:17.433Z,13.70
2022-10-31T18:50:45.445Z,13.70
2022-10-31T18:53:13.288Z,13.70
2022-10-31T18:55:45.436Z,13.60
2022-10-31T18:58:17.464Z,13.60
2022-10-31T19:00:46.102Z,13.70
2022-10-31T19:03:15.065Z,13.60
2022-10-31T19:05:43.037Z,13.60
2022-10-31T19:08:11.381Z,13.60
2022-10-31T19:10:40.187Z,13.60
2022-10-31T19:13:08.289Z,13.50
2022-10-31T19:15:36.202Z,13.50
2022-10-31T19:18:04.504Z,13.40
2022-10-31T19:20:32.269Z,13.30
2022-10-31T19:23:00.438Z,13.30
2022-10-31T19:25:28.406Z,13.20
2022-10-31T19:27:56.085Z,13.20
2022-10-31T19:30:23.791Z,13.10
2022-10-31T19:32:55.454Z,13.10
2022-10-31T19:35:23.086Z,13.20
2022-10-31T19:37:50.834Z,13.20
2022-10-31T19:40:18.675Z,13.10
2022-10-31T19:42:46.438Z,13.10
2022-10-31T19:45:14.175Z,13.10
2022-10-31T19:47:41.892Z,13.00
2022-10-31T19:50:09.979Z,13.00
2022-10-31T19:52:37.692Z,12.90
2022-10-31T19:55:05.949Z,13.00
2022-10-31T19:57:56.607Z,12.90
2022-10-31T20:00:24.039Z,12.90
2022-10-31T20:02:51.743Z,12.80
2022-10-31T20:05:19.467Z,12.80
2022-10-31T20:07:47.307Z,12.80
2022-10-31T20:10:15.173Z,12.70
2022-10-31T20:12:42.923Z,12.80
2022-10-31T20:15:10.799Z,12.80
2022-10-31T20:17:38.631Z,12.80
2022-10-31T20:20:08.912Z,12.80
2022-10-31T20:22:37.003Z,12.80
2022-10-31T20:25:05.327Z,12.80
2022-10-31T20:27:33.099Z,12.80
2022-10-31T20:30:00.912Z,12.80
2022-10-31T20:32:28.603Z,12.80
2022-10-31T20:34:56.357Z,12.80
2022-10-31T20:37:24.896Z,12.70
2022-10-31T20:39:55.657Z,12.70
2022-10-31T20:42:24.408Z,12.60
2022-10-31T20:44:52.035Z,12.50
2022-10-31T20:47:23.321Z,12.50
2022-10-31T20:49:53.489Z,12.50
2022-10-31T20:52:21.198Z,12.40
2022-10-31T20:54:48.914Z,12.40
2022-10-31T20:57:16.946Z,12.40
2022-10-31T20:59:44.613Z,12.50
2022-10-31T21:02:12.497Z,12.50
2022-10-31T21:04:40.253Z,12.60
2022-10-31T21:07:08.021Z,12.60
2022-10-31T21:09:35.820Z,12.60
2022-10-31T21:12:03.675Z,12.50
2022-10-31T21:14:31.436Z,12.40
2022-10-31T21:16:59.131Z,12.40
2022-10-31T21:19:26.923Z,12.40
2022-10-31T21:21:54.681Z,12.40
2022-10-31T21:24:23.036Z,12.30
2022-10-31T21:26:52.348Z,12.30
2022-10-31T21:29:20.471Z,12.30
2022-10-31T21:31:48.808Z,12.30
2022-10-31T21:34:16.804Z,12.30
2022-10-31T21:36:47.243Z,12.30
2022-10-31T21:39:14.933Z,12.30
2022-10-31T21:41:42.714Z,12.40
2022-10-31T21:44:10.454Z,12.40
2022-10-31T21:46:39.924Z,12.40
2022-10-31T21:49:07.723Z,12.40
2022-10-31T21:51:36.837Z,12.40
2022-10-31T21:54:23.652Z,12.30
2022-10-31T21:56:51.755Z,12.40
2022-10-31T21:59:19.507Z,12.30
2022-10-31T22:01:47.270Z,12.30
2022-10-31T22:04:15.267Z,12.20
2022-10-31T22:06:43.255Z,12.30
2022-10-31T22:09:13.431Z,12.30
2022-10-31T22:11:42.263Z,12.20
2022-10-31T22:14:14.510Z,12.10
2022-10-31T22:16:42.705Z,12.20
2022-10-31T22:19:12.693Z,12.10
2022-10-31T22:21:49.206Z,12.10
2022-10-31T22:24:18.341Z,12.10
2022-10-31T22:26:46.101Z,12.20
2022-10-31T22:29:17.196Z,12.20
2022-10-31T22:31:48.522Z,12.10
2022-10-31T22:34:19.063Z,12.10
2022-10-31T22:36:46.843Z,12.10
2022-10-31T22:39:14.727Z,12.10
2022-10-31T22:41:42.453Z,12.20
2022-10-31T22:44:10.267Z,12.20
2022-10-31T22:46:39.805Z,12.20
2022-10-31T22:49:14.675Z,12.40
2022-10-31T22:51:43.747Z,12.40
2022-10-31T22:54:17.037Z,12.50
2022-10-31T22:56:45.416Z,12.60
2022-10-31T22:59:14.841Z,12.50
2022-10-31T23:01:45.566Z,12.60
2022-10-31T23:04:15.580Z,12.70
2022-10-31T23:06:43.553Z,12.70
2022-10-31T23:09:14.288Z,12.70
2022-10-31T23:11:42.583Z,12.70
2022-10-31T23:14:14.184Z,12.70
2022-10-31T23:16:46.318Z,12.60
2022-10-31T23:19:22.086Z,12.60
2022-10-31T23:21:56.156Z,12.60
2022-10-31T23:24:36.749Z,12.70
2022-10-31T23:27:13.774Z,12.60
2022-10-31T23:29:48.732Z,12.60
2022-10-31T23:32:24.782Z,12.60
2022-10-31T23:34:54.995Z,12.50
2022-10-31T23:37:24.818Z,12.50
2022-10-31T23:39:52.616Z,12.40
2022-10-31T23:42:23.037Z,12.40
2022-10-31T23:44:50.874Z,12.40
2022-10-31T23:47:19.293Z,12.40
2022-10-31T23:49:47.210Z,12.40
2022-10-31T23:52:15.903Z,12.40
2022-10-31T23:54:44.277Z,12.30
2022-10-31T23:57:16.210Z,12.30
2022-10-31T23:59:44.400Z,12.30
